createdAt,value
2016-09-27T00:00:07.363Z,11.93
2016-09-27T00:01:07.843Z,11.93
2016-09-27T00:02:07.387Z,11.90
2016-09-27T00:03:07.884Z,11.98
2016-09-27T00:04:07.390Z,11.97
2016-09-27T00:05:07.960Z,11.85
2016-09-27T00:06:07.464Z,11.84
2016-09-27T00:07:08.171Z,11.83
2016-09-27T00:08:07.684Z,11.89
2016-09-27T00:09:07.262Z,11.91
2016-09-27T00:10:07.846Z,11.87
2016-09-27T00:11:07.487Z,11.82
2016-09-27T00:12:07.861Z,11.81
2016-09-27T00:13:07.392Z,11.83
2016-09-27T00:14:07.813Z,11.80
2016-09-27T00:15:07.790Z,11.71
2016-09-27T00:16:07.261Z,11.67
2016-09-27T00:17:07.970Z,11.68
2016-09-27T00:18:07.655Z,11.66
2016-09-27T00:19:07.199Z,11.60
2016-09-27T00:20:07.695Z,11.65
2016-09-27T00:21:07.276Z,11.64
2016-09-27T00:22:07.802Z,11.65
2016-09-27T00:23:07.373Z,11.67
2016-09-27T00:24:07.915Z,11.70
2016-09-27T00:25:07.591Z,11.67
2016-09-27T00:26:07.616Z,11.65
2016-09-27T00:27:07.179Z,11.63
2016-09-27T00:28:07.652Z,11.63
2016-09-27T00:29:07.216Z,11.70
2016-09-27T00:30:07.747Z,11.78
2016-09-27T00:31:07.212Z,11.80
2016-09-27T00:32:07.791Z,11.75
2016-09-27T00:33:07.350Z,11.70
2016-09-27T00:34:07.874Z,11.70
2016-09-27T00:35:07.438Z,11.67
2016-09-27T00:36:08.035Z,11.56
2016-09-27T00:37:07.579Z,11.56
2016-09-27T00:38:08.093Z,11.51
2016-09-27T00:39:07.573Z,11.53
2016-09-27T00:40:08.130Z,11.54
2016-09-27T00:41:07.709Z,11.61
2016-09-27T00:42:07.230Z,11.63
2016-09-27T00:43:07.858Z,11.68
2016-09-27T00:44:07.368Z,11.70
2016-09-27T00:45:07.910Z,11.77
2016-09-27T00:46:07.449Z,11.82
2016-09-27T00:47:08.074Z,11.84
2016-09-27T00:48:07.507Z,11.82
2016-09-27T00:49:07.509Z,11.80
2016-09-27T00:50:08.097Z,11.83
2016-09-27T00:51:07.671Z,11.86
2016-09-27T00:52:07.151Z,11.80
2016-09-27T00:53:07.668Z,11.75
2016-09-27T00:54:07.271Z,11.79
2016-09-27T00:55:07.767Z,11.70
2016-09-27T00:56:07.416Z,11.70
2016-09-27T00:57:07.617Z,11.69
2016-09-27T00:58:07.110Z,11.59
2016-09-27T00:59:07.639Z,11.65
2016-09-27T01:00:07.125Z,11.70
2016-09-27T01:01:07.965Z,11.73
2016-09-27T01:02:07.598Z,11.72
2016-09-27T01:03:07.172Z,11.74
2016-09-27T01:04:07.707Z,11.73
2016-09-27T01:05:07.358Z,11.67
2016-09-27T01:06:07.919Z,11.62
2016-09-27T01:07:07.470Z,11.52
2016-09-27T01:08:08.033Z,11.47
2016-09-27T01:09:07.540Z,11.44
2016-09-27T01:10:08.059Z,11.53
2016-09-27T01:11:07.751Z,11.49
2016-09-27T01:12:07.371Z,11.45
2016-09-27T01:13:07.876Z,11.47
2016-09-27T01:14:07.352Z,11.47
2016-09-27T01:15:07.923Z,11.45
2016-09-27T01:16:08.113Z,11.42
2016-09-27T01:17:07.759Z,11.42
2016-09-27T01:18:07.290Z,11.40
2016-09-27T01:19:07.828Z,11.39
2016-09-27T01:20:07.857Z,11.43
2016-09-27T01:21:07.360Z,11.40
2016-09-27T01:22:07.872Z,11.40
2016-09-27T01:23:07.372Z,11.34
2016-09-27T01:24:07.965Z,11.24
2016-09-27T01:25:07.448Z,11.06
2016-09-27T01:26:08.391Z,11.07
2016-09-27T01:27:07.956Z,11.10
2016-09-27T01:28:07.493Z,11.12
2016-09-27T01:29:07.209Z,11.16
2016-09-27T01:30:07.805Z,11.25
2016-09-27T01:31:07.280Z,11.38
2016-09-27T01:32:07.831Z,11.50
2016-09-27T01:33:07.367Z,11.53
2016-09-27T01:34:07.920Z,11.51
2016-09-27T01:35:07.433Z,11.48
2016-09-27T01:36:07.962Z,11.43
2016-09-27T01:37:08.078Z,11.36
2016-09-27T01:38:07.719Z,11.17
2016-09-27T01:39:07.164Z,11.12
2016-09-27T01:40:07.756Z,11.13
2016-09-27T01:41:07.729Z,11.13
2016-09-27T01:42:07.322Z,11.20
2016-09-27T01:43:07.911Z,11.30
2016-09-27T01:44:07.718Z,11.24
2016-09-27T01:45:08.069Z,11.18
2016-09-27T01:46:07.794Z,11.17
2016-09-27T01:47:08.043Z,11.22
2016-09-27T01:48:07.468Z,11.23
2016-09-27T01:49:07.916Z,11.23
2016-09-27T01:50:07.490Z,11.23
2016-09-27T01:51:08.179Z,11.14
2016-09-27T01:52:07.737Z,11.13
2016-09-27T01:53:07.203Z,11.09
2016-09-27T01:54:08.080Z,11.10
2016-09-27T01:55:07.676Z,11.04
2016-09-27T01:56:07.839Z,11.09
2016-09-27T01:57:07.974Z,11.10
2016-09-27T01:58:07.542Z,11.13
2016-09-27T01:59:07.153Z,11.06
2016-09-27T02:00:07.748Z,11.02
2016-09-27T02:01:07.860Z,10.99
2016-09-27T02:02:07.512Z,10.97
2016-09-27T02:03:08.000Z,10.97
2016-09-27T02:04:07.537Z,10.97
2016-09-27T02:05:08.108Z,10.97
2016-09-27T02:06:07.670Z,10.91
2016-09-27T02:07:07.171Z,10.90
2016-09-27T02:08:07.688Z,10.87
2016-09-27T02:09:07.446Z,10.87
2016-09-27T02:10:08.296Z,10.85
2016-09-27T02:11:08.326Z,10.84
2016-09-27T02:12:07.946Z,10.86
2016-09-27T02:13:07.507Z,10.77
2016-09-27T02:14:08.034Z,10.78
2016-09-27T02:15:08.105Z,10.76
2016-09-27T02:16:07.609Z,10.81
2016-09-27T02:17:07.367Z,10.79
2016-09-27T02:18:07.887Z,10.88
2016-09-27T02:19:07.709Z,10.88
2016-09-27T02:20:07.712Z,10.87
2016-09-27T02:21:07.760Z,10.86
2016-09-27T02:22:07.318Z,10.81
2016-09-27T02:23:08.005Z,10.74
2016-09-27T02:24:07.162Z,10.74
2016-09-27T02:25:07.746Z,10.74
2016-09-27T02:26:07.874Z,10.79
2016-09-27T02:27:07.706Z,10.87
2016-09-27T02:28:07.357Z,10.87
2016-09-27T02:29:07.302Z,10.83
2016-09-27T02:30:07.835Z,10.80
2016-09-27T02:31:07.300Z,10.81
2016-09-27T02:32:07.178Z,10.80
2016-09-27T02:33:07.995Z,10.82
2016-09-27T02:34:07.505Z,10.83
2016-09-27T02:35:08.088Z,10.77
2016-09-27T02:36:07.068Z,10.75
2016-09-27T02:37:07.340Z,10.71
2016-09-27T02:38:07.954Z,10.76
2016-09-27T02:39:07.469Z,10.74
2016-09-27T02:40:07.977Z,10.72
2016-09-27T02:41:07.715Z,10.73
2016-09-27T02:42:07.915Z,10.72
2016-09-27T02:43:07.487Z,10.74
2016-09-27T02:44:07.920Z,10.71
2016-09-27T02:45:07.400Z,10.61
2016-09-27T02:46:07.965Z,10.57
2016-09-27T02:47:07.518Z,10.61
2016-09-27T02:48:08.161Z,10.66
2016-09-27T02:49:07.585Z,10.66
2016-09-27T02:50:07.143Z,10.68
2016-09-27T02:51:07.749Z,10.73
2016-09-27T02:52:07.241Z,10.81
2016-09-27T02:53:07.775Z,10.85
2016-09-27T02:54:07.338Z,10.84
2016-09-27T02:55:07.899Z,10.83
2016-09-27T02:56:07.977Z,10.78
2016-09-27T02:57:07.666Z,10.83
2016-09-27T02:58:07.378Z,10.86
2016-09-27T02:59:07.980Z,10.81
2016-09-27T03:00:07.529Z,10.66
2016-09-27T03:01:08.033Z,10.62
2016-09-27T03:02:07.479Z,10.58
2016-09-27T03:03:08.210Z,10.58
2016-09-27T03:04:07.789Z,10.59
2016-09-27T03:05:07.444Z,10.63
2016-09-27T03:06:07.913Z,10.60
2016-09-27T03:07:07.558Z,10.68
2016-09-27T03:08:08.391Z,10.65
2016-09-27T03:09:07.927Z,10.74
2016-09-27T03:10:07.472Z,10.68
2016-09-27T03:11:08.106Z,10.65
2016-09-27T03:12:07.797Z,10.58
2016-09-27T03:13:07.278Z,10.59
2016-09-27T03:14:07.818Z,10.51
2016-09-27T03:15:07.371Z,10.58
2016-09-27T03:16:07.942Z,10.59
2016-09-27T03:17:07.556Z,10.55
2016-09-27T03:18:08.063Z,10.65
2016-09-27T03:19:07.930Z,10.58
2016-09-27T03:20:07.416Z,10.55
2016-09-27T03:21:07.990Z,10.55
2016-09-27T03:22:07.512Z,10.58
2016-09-27T03:23:08.107Z,10.54
2016-09-27T03:24:07.718Z,10.56
2016-09-27T03:25:07.229Z,10.55
2016-09-27T03:26:08.048Z,10.55
2016-09-27T03:27:07.678Z,10.54
2016-09-27T03:28:07.231Z,10.49
2016-09-27T03:29:08.180Z,10.45
2016-09-27T03:30:07.887Z,10.40
2016-09-27T03:31:07.445Z,10.41
2016-09-27T03:32:08.008Z,10.41
2016-09-27T03:33:07.476Z,10.46
2016-09-27T03:34:08.101Z,10.42
2016-09-27T03:35:07.678Z,10.39
2016-09-27T03:36:07.130Z,10.44
2016-09-27T03:37:07.689Z,10.48
2016-09-27T03:38:07.232Z,10.46
2016-09-27T03:39:07.753Z,10.53
2016-09-27T03:40:07.300Z,10.49
2016-09-27T03:41:07.889Z,10.47
2016-09-27T03:42:07.530Z,10.40
2016-09-27T03:43:08.133Z,10.44
2016-09-27T03:44:07.619Z,10.48
2016-09-27T03:45:07.129Z,10.48
2016-09-27T03:46:07.649Z,10.50
2016-09-27T03:47:07.143Z,10.44
2016-09-27T03:48:07.621Z,10.35
2016-09-27T03:49:07.122Z,10.32
2016-09-27T03:50:07.611Z,10.29
2016-09-27T03:51:07.162Z,10.30
2016-09-27T03:52:07.611Z,10.32
2016-09-27T03:53:07.463Z,10.33
2016-09-27T03:54:07.994Z,10.31
2016-09-27T03:55:07.534Z,10.26
2016-09-27T03:56:08.387Z,10.29
2016-09-27T03:57:07.878Z,10.34
2016-09-27T03:58:07.418Z,10.37
2016-09-27T03:59:07.972Z,10.36
2016-09-27T04:00:07.580Z,10.33
2016-09-27T04:01:08.111Z,10.29
2016-09-27T04:02:07.682Z,10.26
2016-09-27T04:03:07.236Z,10.30
2016-09-27T04:04:07.763Z,10.37
2016-09-27T04:05:07.387Z,10.40
2016-09-27T04:06:07.881Z,10.36
2016-09-27T04:07:07.410Z,10.41
2016-09-27T04:08:07.997Z,10.35
2016-09-27T04:09:07.486Z,10.31
2016-09-27T04:10:08.063Z,10.34
2016-09-27T04:11:07.642Z,10.29
2016-09-27T04:12:07.167Z,10.26
2016-09-27T04:13:07.797Z,10.21
2016-09-27T04:14:07.277Z,10.21
2016-09-27T04:15:07.847Z,10.16
2016-09-27T04:16:07.407Z,10.16
2016-09-27T04:17:08.107Z,10.21
2016-09-27T04:18:07.547Z,10.21
2016-09-27T04:19:08.075Z,10.18
2016-09-27T04:20:07.676Z,10.20
2016-09-27T04:21:07.175Z,10.20
2016-09-27T04:22:07.673Z,10.18
2016-09-27T04:23:07.315Z,10.15
2016-09-27T04:24:07.789Z,10.19
2016-09-27T04:25:10.021Z,10.23
2016-09-27T04:26:08.337Z,10.19
2016-09-27T04:27:07.640Z,10.27
2016-09-27T04:28:07.314Z,10.26
2016-09-27T04:29:07.856Z,10.36
2016-09-27T04:30:07.424Z,10.36
2016-09-27T04:31:07.956Z,10.22
2016-09-27T04:32:07.494Z,10.21
2016-09-27T04:33:08.156Z,10.13
2016-09-27T04:34:07.791Z,10.10
2016-09-27T04:35:07.401Z,10.08
2016-09-27T04:36:07.993Z,10.13
2016-09-27T04:37:07.513Z,10.11
2016-09-27T04:38:08.089Z,10.05
2016-09-27T04:39:07.719Z,10.12
2016-09-27T04:40:07.320Z,10.06
2016-09-27T04:41:07.965Z,10.10
2016-09-27T04:42:07.612Z,10.12
2016-09-27T04:43:07.222Z,10.11
2016-09-27T04:44:07.752Z,10.07
2016-09-27T04:45:07.237Z,10.02
2016-09-27T04:46:07.726Z,10.03
2016-09-27T04:47:07.213Z,10.09
2016-09-27T04:48:07.759Z,10.09
2016-09-27T04:49:07.623Z,10.11
2016-09-27T04:50:07.145Z,10.10
2016-09-27T04:51:07.624Z,10.08
2016-09-27T04:52:07.180Z,10.12
2016-09-27T04:53:07.706Z,10.14
2016-09-27T04:54:07.273Z,10.24
2016-09-27T04:55:07.774Z,10.25
2016-09-27T04:56:07.437Z,10.23
2016-09-27T04:57:08.068Z,10.22
2016-09-27T04:58:07.653Z,10.27
2016-09-27T04:59:07.202Z,10.27
2016-09-27T05:00:07.749Z,10.35
2016-09-27T05:01:07.375Z,10.32
2016-09-27T05:02:07.933Z,10.30
2016-09-27T05:03:07.441Z,10.28
2016-09-27T05:04:08.002Z,10.21
2016-09-27T05:05:08.107Z,10.15
2016-09-27T05:06:07.598Z,10.09
2016-09-27T05:07:07.083Z,10.08
2016-09-27T05:08:07.580Z,10.12
2016-09-27T05:09:07.112Z,10.08
2016-09-27T05:10:07.668Z,10.18
2016-09-27T05:11:08.130Z,10.25
2016-09-27T05:12:07.621Z,10.29
2016-09-27T05:13:07.112Z,10.24
2016-09-27T05:14:07.714Z,10.16
2016-09-27T05:15:07.308Z,10.18
2016-09-27T05:16:07.969Z,10.18
2016-09-27T05:17:07.739Z,10.26
2016-09-27T05:18:07.194Z,10.19
2016-09-27T05:19:07.753Z,10.20
2016-09-27T05:20:07.312Z,10.18
2016-09-27T05:21:07.887Z,10.20
2016-09-27T05:22:07.495Z,10.18
2016-09-27T05:23:08.012Z,10.17
2016-09-27T05:24:07.673Z,10.17
2016-09-27T05:25:07.177Z,10.10
2016-09-27T05:26:08.518Z,10.06
2016-09-27T05:27:08.153Z,10.03
2016-09-27T05:28:07.697Z,10.06
2016-09-27T05:29:07.286Z,10.13
2016-09-27T05:30:07.885Z,10.17
2016-09-27T05:31:07.445Z,10.18
2016-09-27T05:32:08.054Z,10.18
2016-09-27T05:33:07.530Z,10.22
2016-09-27T05:34:08.083Z,10.25
2016-09-27T05:35:07.656Z,10.21
2016-09-27T05:36:07.154Z,10.07
2016-09-27T05:37:07.711Z,10.06
2016-09-27T05:38:07.393Z,10.11
2016-09-27T05:39:07.945Z,10.16
2016-09-27T05:40:07.546Z,10.10
2016-09-27T05:41:08.180Z,10.16
2016-09-27T05:42:07.773Z,10.24
2016-09-27T05:43:07.425Z,10.21
2016-09-27T05:44:07.937Z,10.17
2016-09-27T05:45:07.419Z,10.21
2016-09-27T05:46:07.933Z,10.35
2016-09-27T05:47:07.454Z,10.34
2016-09-27T05:48:08.025Z,10.37
2016-09-27T05:49:07.616Z,10.37
2016-09-27T05:50:07.145Z,10.42
2016-09-27T05:51:07.678Z,10.51
2016-09-27T05:52:07.244Z,10.53
2016-09-27T05:53:07.754Z,10.55
2016-09-27T05:54:07.297Z,10.63
2016-09-27T05:55:07.727Z,10.67
2016-09-27T05:56:08.675Z,10.64
2016-09-27T05:57:07.216Z,10.62
2016-09-27T05:58:07.735Z,10.61
2016-09-27T05:59:07.266Z,10.68
2016-09-27T06:00:07.815Z,10.64
2016-09-27T06:01:07.305Z,10.73
2016-09-27T06:02:07.859Z,10.86
2016-09-27T06:03:07.433Z,10.86
2016-09-27T06:04:07.943Z,10.87
2016-09-27T06:05:07.442Z,10.90
2016-09-27T06:06:07.994Z,10.92
2016-09-27T06:07:07.611Z,11.01
2016-09-27T06:08:07.184Z,11.15
2016-09-27T06:09:07.766Z,11.15
2016-09-27T06:10:07.265Z,11.14
2016-09-27T06:11:08.634Z,11.09
2016-09-27T06:12:07.108Z,11.18
2016-09-27T06:13:07.673Z,11.11
2016-09-27T06:14:07.199Z,11.19
2016-09-27T06:15:07.709Z,11.25
2016-09-27T06:16:07.178Z,11.22
2016-09-27T06:17:07.845Z,11.32
2016-09-27T06:18:07.363Z,11.32
2016-09-27T06:19:07.896Z,11.30
2016-09-27T06:20:07.371Z,11.31
2016-09-27T06:21:07.957Z,11.31
2016-09-27T06:22:07.451Z,11.37
2016-09-27T06:23:07.970Z,11.31
2016-09-27T06:24:07.504Z,11.33
2016-09-27T06:25:07.283Z,11.33
2016-09-27T06:26:08.702Z,11.40
2016-09-27T06:27:07.199Z,11.38
2016-09-27T06:28:07.757Z,11.27
2016-09-27T06:29:07.316Z,11.39
2016-09-27T06:30:07.870Z,11.49
2016-09-27T06:31:07.323Z,11.50
2016-09-27T06:32:07.852Z,11.55
2016-09-27T06:33:07.401Z,11.47
2016-09-27T06:34:07.962Z,11.42
2016-09-27T06:35:07.501Z,11.41
2016-09-27T06:36:08.108Z,11.40
2016-09-27T06:37:07.751Z,11.41
2016-09-27T06:38:07.308Z,11.52
2016-09-27T06:39:07.813Z,11.55
2016-09-27T06:40:07.351Z,11.60
2016-09-27T06:41:08.802Z,11.70
2016-09-27T06:42:07.307Z,11.76
2016-09-27T06:43:07.798Z,11.91
2016-09-27T06:44:07.274Z,11.92
2016-09-27T06:45:07.841Z,11.76
2016-09-27T06:46:07.414Z,11.52
2016-09-27T06:47:08.010Z,11.57
2016-09-27T06:48:07.531Z,11.61
2016-09-27T06:49:08.120Z,11.60
2016-09-27T06:50:07.679Z,11.73
2016-09-27T06:51:07.314Z,11.69
2016-09-27T06:52:07.910Z,11.64
2016-09-27T06:53:07.471Z,11.68
2016-09-27T06:54:08.062Z,11.56
2016-09-27T06:55:07.640Z,11.63
2016-09-27T06:56:07.623Z,11.87
2016-09-27T06:57:07.228Z,12.00
2016-09-27T06:58:07.818Z,12.08
2016-09-27T06:59:07.330Z,12.12
2016-09-27T07:00:08.000Z,12.09
2016-09-27T07:01:07.482Z,12.01
2016-09-27T07:02:08.045Z,12.05
2016-09-27T07:03:07.550Z,12.03
2016-09-27T07:04:08.092Z,11.81
2016-09-27T07:05:07.671Z,11.70
2016-09-27T07:06:07.184Z,11.81
2016-09-27T07:07:07.831Z,11.93
2016-09-27T07:08:07.269Z,11.90
2016-09-27T07:09:07.392Z,11.91
2016-09-27T07:10:07.965Z,12.12
2016-09-27T07:11:08.366Z,12.24
2016-09-27T07:12:07.971Z,12.29
2016-09-27T07:13:07.628Z,12.43
2016-09-27T07:14:07.086Z,12.25
2016-09-27T07:15:07.677Z,12.33
2016-09-27T07:16:07.261Z,12.26
2016-09-27T07:17:08.061Z,12.16
2016-09-27T07:18:07.613Z,12.29
2016-09-27T07:19:07.078Z,12.30
2016-09-27T07:20:07.580Z,12.28
2016-09-27T07:21:07.163Z,12.42
2016-09-27T07:22:07.782Z,12.29
2016-09-27T07:23:07.413Z,12.33
2016-09-27T07:24:07.944Z,12.26
2016-09-27T07:25:07.474Z,12.17
2016-09-27T07:26:08.949Z,12.01
2016-09-27T07:27:07.500Z,12.09
2016-09-27T07:28:08.154Z,12.13
2016-09-27T07:29:07.716Z,12.10
2016-09-27T07:30:07.232Z,12.25
2016-09-27T07:31:07.781Z,12.40
2016-09-27T07:32:07.374Z,12.51
2016-09-27T07:33:08.014Z,12.39
2016-09-27T07:34:07.534Z,12.36
2016-09-27T07:35:08.086Z,12.43
2016-09-27T07:36:07.563Z,12.47
2016-09-27T07:37:08.278Z,12.52
2016-09-27T07:38:07.850Z,12.68
2016-09-27T07:39:07.378Z,12.82
2016-09-27T07:40:07.910Z,12.94
2016-09-27T07:41:07.514Z,13.02
2016-09-27T07:42:08.120Z,12.75
2016-09-27T07:43:07.625Z,12.84
2016-09-27T07:44:07.203Z,12.85
2016-09-27T07:45:07.685Z,12.90
2016-09-27T07:46:07.322Z,12.89
2016-09-27T07:47:07.846Z,12.92
2016-09-27T07:48:07.403Z,12.97
2016-09-27T07:49:07.976Z,13.03
2016-09-27T07:50:07.432Z,12.94
2016-09-27T07:51:07.976Z,13.05
2016-09-27T07:52:07.503Z,13.17
2016-09-27T07:53:08.106Z,13.23
2016-09-27T07:54:07.761Z,13.30
2016-09-27T07:55:07.257Z,13.28
2016-09-27T07:56:08.694Z,13.28
2016-09-27T07:57:07.156Z,13.36
2016-09-27T07:58:07.730Z,13.31
2016-09-27T07:59:07.227Z,13.37
2016-09-27T08:00:07.765Z,13.36
2016-09-27T08:01:07.261Z,13.37
2016-09-27T08:02:07.846Z,13.31
2016-09-27T08:03:07.435Z,13.35
2016-09-27T08:04:08.112Z,13.39
2016-09-27T08:05:07.642Z,13.40
2016-09-27T08:06:07.161Z,13.31
2016-09-27T08:07:07.743Z,13.03
2016-09-27T08:08:07.319Z,13.06
2016-09-27T08:09:07.893Z,13.07
2016-09-27T08:10:07.449Z,13.13
2016-09-27T08:11:08.528Z,13.26
2016-09-27T08:12:08.157Z,13.41
2016-09-27T08:13:07.776Z,13.56
2016-09-27T08:14:07.336Z,13.59
2016-09-27T08:15:07.887Z,13.65
2016-09-27T08:16:07.431Z,13.70
2016-09-27T08:17:08.149Z,13.67
2016-09-27T08:18:07.690Z,13.67
2016-09-27T08:19:07.245Z,13.63
2016-09-27T08:20:07.754Z,13.56
2016-09-27T08:21:07.264Z,13.62
2016-09-27T08:22:07.742Z,13.73
2016-09-27T08:23:07.268Z,13.77
2016-09-27T08:24:07.828Z,13.85
2016-09-27T08:25:07.373Z,13.92
2016-09-27T08:26:08.806Z,13.95
2016-09-27T08:27:07.467Z,13.88
2016-09-27T08:28:08.064Z,13.84
2016-09-27T08:29:07.613Z,13.73
2016-09-27T08:30:07.102Z,13.68
2016-09-27T08:31:07.660Z,13.72
2016-09-27T08:32:07.206Z,13.75
2016-09-27T08:33:07.837Z,13.81
2016-09-27T08:34:07.400Z,13.74
2016-09-27T08:35:08.004Z,13.81
2016-09-27T08:36:07.575Z,13.83
2016-09-27T08:37:08.063Z,13.81
2016-09-27T08:38:07.588Z,13.77
2016-09-27T08:39:07.047Z,13.76
2016-09-27T08:40:07.639Z,13.75
2016-09-27T08:41:07.187Z,13.84
2016-09-27T08:42:07.721Z,13.81
2016-09-27T08:43:07.247Z,13.81
2016-09-27T08:44:07.887Z,13.76
2016-09-27T08:45:07.498Z,13.78
2016-09-27T08:46:08.062Z,13.76
2016-09-27T08:47:07.639Z,13.76
2016-09-27T08:48:07.156Z,13.69
2016-09-27T08:49:07.647Z,13.64
2016-09-27T08:50:07.122Z,13.66
2016-09-27T08:51:07.628Z,13.76
2016-09-27T08:52:07.134Z,13.86
2016-09-27T08:53:07.756Z,13.87
2016-09-27T08:54:07.217Z,13.90
2016-09-27T08:55:07.789Z,13.96
2016-09-27T08:56:07.481Z,14.07
2016-09-27T08:57:08.117Z,14.20
2016-09-27T08:58:07.690Z,14.30
2016-09-27T08:59:07.326Z,14.33
2016-09-27T09:00:07.931Z,14.35
2016-09-27T09:01:07.530Z,14.53
2016-09-27T09:02:07.992Z,14.62
2016-09-27T09:03:07.555Z,14.72
2016-09-27T09:04:08.132Z,14.70
2016-09-27T09:05:07.640Z,14.85
2016-09-27T09:06:07.109Z,14.90
2016-09-27T09:07:07.589Z,14.89
2016-09-27T09:08:07.197Z,14.94
2016-09-27T09:09:07.761Z,15.03
2016-09-27T09:10:07.270Z,15.05
2016-09-27T09:11:07.875Z,15.16
2016-09-27T09:12:07.398Z,15.18
2016-09-27T09:13:08.027Z,15.11
2016-09-27T09:14:07.659Z,15.06
2016-09-27T09:15:07.224Z,14.89
2016-09-27T09:16:07.730Z,14.71
2016-09-27T09:17:07.410Z,14.65
2016-09-27T09:18:08.007Z,14.41
2016-09-27T09:19:07.847Z,14.53
2016-09-27T09:20:07.381Z,14.68
2016-09-27T09:21:07.901Z,14.78
2016-09-27T09:22:07.545Z,14.74
2016-09-27T09:23:08.152Z,14.75
2016-09-27T09:24:07.623Z,14.86
2016-09-27T09:25:07.178Z,14.86
2016-09-27T09:26:08.193Z,14.64
2016-09-27T09:27:07.722Z,14.64
2016-09-27T09:28:07.257Z,14.89
2016-09-27T09:29:07.862Z,14.98
2016-09-27T09:30:07.563Z,14.95
2016-09-27T09:31:08.200Z,14.96
2016-09-27T09:32:07.741Z,15.01
2016-09-27T09:33:07.329Z,15.06
2016-09-27T09:34:07.924Z,15.11
2016-09-27T09:35:07.369Z,15.24
2016-09-27T09:36:07.944Z,15.32
2016-09-27T09:37:07.485Z,15.29
2016-09-27T09:38:08.060Z,15.34
2016-09-27T09:39:07.599Z,15.35
2016-09-27T09:40:08.117Z,15.42
2016-09-27T09:41:07.981Z,15.53
2016-09-27T09:42:07.751Z,15.53
2016-09-27T09:43:07.326Z,15.51
2016-09-27T09:44:07.982Z,15.49
2016-09-27T09:45:07.467Z,15.50
2016-09-27T09:46:08.063Z,15.49
2016-09-27T09:47:07.631Z,15.51
2016-09-27T09:48:07.108Z,15.45
2016-09-27T09:49:07.630Z,15.54
2016-09-27T09:50:07.132Z,15.55
2016-09-27T09:51:07.693Z,15.58
2016-09-27T09:52:07.316Z,15.60
2016-09-27T09:53:07.888Z,15.70
2016-09-27T09:54:07.403Z,15.70
2016-09-27T09:55:07.914Z,15.79
2016-09-27T09:56:07.633Z,15.91
2016-09-27T09:57:07.362Z,15.76
2016-09-27T09:58:07.931Z,15.66
2016-09-27T09:59:07.418Z,15.81
2016-09-27T10:00:07.967Z,15.82
2016-09-27T10:01:07.520Z,15.90
2016-09-27T10:02:08.052Z,16.04
2016-09-27T10:03:07.516Z,16.06
2016-09-27T10:04:08.099Z,16.09
2016-09-27T10:05:07.607Z,16.05
2016-09-27T10:06:07.051Z,16.07
2016-09-27T10:07:07.533Z,16.12
2016-09-27T10:08:08.181Z,16.12
2016-09-27T10:09:07.740Z,16.08
2016-09-27T10:10:07.235Z,16.08
2016-09-27T10:11:07.808Z,16.08
2016-09-27T10:12:07.309Z,16.06
2016-09-27T10:13:07.900Z,16.05
2016-09-27T10:14:07.492Z,16.01
2016-09-27T10:15:07.997Z,15.99
2016-09-27T10:16:07.491Z,15.96
2016-09-27T10:17:08.154Z,15.98
2016-09-27T10:18:07.680Z,15.90
2016-09-27T10:19:07.142Z,15.95
2016-09-27T10:20:07.711Z,15.91
2016-09-27T10:21:07.265Z,15.89
2016-09-27T10:22:07.853Z,15.91
2016-09-27T10:23:07.339Z,15.83
2016-09-27T10:24:07.949Z,15.91
2016-09-27T10:25:07.513Z,15.92
2016-09-27T10:26:08.794Z,15.97
2016-09-27T10:27:07.535Z,16.08
2016-09-27T10:28:08.101Z,16.12
2016-09-27T10:29:07.725Z,16.12
2016-09-27T10:30:07.532Z,16.05
2016-09-27T10:31:08.011Z,15.97
2016-09-27T10:32:07.541Z,16.06
2016-09-27T10:33:08.063Z,16.05
2016-09-27T10:34:07.700Z,16.04
2016-09-27T10:35:07.258Z,16.02
2016-09-27T10:36:07.724Z,15.96
2016-09-27T10:37:07.255Z,15.99
2016-09-27T10:38:07.738Z,15.96
2016-09-27T10:39:07.270Z,15.93
2016-09-27T10:40:07.801Z,16.03
2016-09-27T10:41:07.311Z,16.09
2016-09-27T10:42:07.877Z,16.08
2016-09-27T10:43:07.425Z,16.07
2016-09-27T10:44:08.097Z,16.12
2016-09-27T10:45:07.651Z,16.16
2016-09-27T10:46:07.080Z,16.20
2016-09-27T10:47:07.566Z,16.14
2016-09-27T10:48:08.218Z,15.99
2016-09-27T10:49:07.767Z,16.05
2016-09-27T10:50:07.338Z,16.09
2016-09-27T10:51:07.768Z,16.07
2016-09-27T10:52:07.335Z,16.07
2016-09-27T10:53:07.820Z,16.13
2016-09-27T10:54:07.446Z,15.91
2016-09-27T10:55:08.025Z,16.08
2016-09-27T10:56:07.670Z,16.04
2016-09-27T10:57:07.454Z,15.88
2016-09-27T10:58:08.016Z,16.00
2016-09-27T10:59:07.575Z,16.07
2016-09-27T11:00:08.160Z,15.97
2016-09-27T11:01:07.755Z,15.84
2016-09-27T11:02:07.866Z,15.96
2016-09-27T11:03:07.448Z,15.89
2016-09-27T11:04:07.965Z,16.00
2016-09-27T11:05:07.507Z,16.00
2016-09-27T11:06:07.975Z,15.96
2016-09-27T11:07:07.438Z,16.07
2016-09-27T11:08:07.984Z,16.10
2016-09-27T11:09:07.641Z,16.07
2016-09-27T11:10:07.158Z,16.15
2016-09-27T11:11:07.748Z,16.11
2016-09-27T11:12:07.399Z,16.07
2016-09-27T11:13:07.955Z,16.07
2016-09-27T11:14:07.542Z,16.02
2016-09-27T11:15:08.110Z,15.88
2016-09-27T11:16:07.675Z,15.90
2016-09-27T11:17:07.295Z,15.92
2016-09-27T11:18:07.849Z,16.02
2016-09-27T11:19:07.314Z,16.11
2016-09-27T11:20:07.848Z,16.06
2016-09-27T11:21:07.493Z,16.08
2016-09-27T11:22:08.091Z,16.15
2016-09-27T11:23:07.694Z,16.07
2016-09-27T11:24:07.263Z,16.09
2016-09-27T11:25:07.832Z,16.10
2016-09-27T11:26:07.390Z,16.03
2016-09-27T11:27:07.903Z,16.24
2016-09-27T11:28:07.420Z,16.30
2016-09-27T11:29:07.971Z,16.35
2016-09-27T11:30:07.442Z,16.26
2016-09-27T11:31:08.007Z,16.25
2016-09-27T11:32:07.536Z,16.35
2016-09-27T11:33:08.159Z,16.40
2016-09-27T11:34:07.830Z,16.37
2016-09-27T11:35:07.363Z,16.42
2016-09-27T11:36:07.913Z,16.46
2016-09-27T11:37:07.382Z,16.50
2016-09-27T11:38:08.010Z,16.40
2016-09-27T11:39:07.624Z,16.42
2016-09-27T11:40:07.230Z,16.17
2016-09-27T11:41:07.712Z,16.26
2016-09-27T11:42:07.222Z,16.34
2016-09-27T11:43:07.779Z,16.37
2016-09-27T11:44:07.360Z,16.45
2016-09-27T11:45:07.906Z,16.53
2016-09-27T11:46:07.457Z,16.66
2016-09-27T11:47:07.922Z,16.74
2016-09-27T11:48:07.346Z,16.82
2016-09-27T11:49:07.995Z,16.87
2016-09-27T11:50:07.472Z,16.94
2016-09-27T11:51:08.001Z,16.80
2016-09-27T11:52:07.552Z,16.69
2016-09-27T11:53:08.160Z,16.61
2016-09-27T11:54:07.732Z,16.59
2016-09-27T11:55:07.255Z,16.62
2016-09-27T11:56:07.760Z,16.66
2016-09-27T11:57:07.305Z,16.71
2016-09-27T11:58:07.871Z,16.63
2016-09-27T11:59:07.429Z,16.50
2016-09-27T12:00:07.988Z,16.52
2016-09-27T12:01:07.441Z,16.65
2016-09-27T12:02:08.041Z,16.68
2016-09-27T12:03:07.513Z,16.70
2016-09-27T12:04:08.084Z,16.69
2016-09-27T12:05:07.658Z,16.67
2016-09-27T12:06:07.112Z,16.80
2016-09-27T12:07:07.679Z,16.93
2016-09-27T12:08:07.175Z,16.76
2016-09-27T12:09:07.684Z,16.76
2016-09-27T12:10:07.149Z,16.85
2016-09-27T12:11:07.742Z,16.94
2016-09-27T12:12:07.265Z,17.06
2016-09-27T12:13:07.793Z,17.04
2016-09-27T12:14:07.199Z,17.00
2016-09-27T12:15:07.783Z,16.95
2016-09-27T12:16:07.455Z,17.00
2016-09-27T12:17:08.168Z,17.07
2016-09-27T12:18:07.729Z,17.12
2016-09-27T12:19:07.305Z,17.06
2016-09-27T12:20:07.919Z,17.06
2016-09-27T12:21:07.514Z,17.05
2016-09-27T12:22:08.136Z,17.13
2016-09-27T12:23:07.644Z,17.10
2016-09-27T12:24:07.179Z,17.19
2016-09-27T12:25:07.707Z,17.23
2016-09-27T12:26:07.334Z,17.19
2016-09-27T12:27:07.871Z,17.21
2016-09-27T12:28:07.441Z,17.18
2016-09-27T12:29:07.932Z,17.18
2016-09-27T12:30:07.669Z,17.24
2016-09-27T12:31:07.142Z,17.23
2016-09-27T12:32:07.705Z,17.26
2016-09-27T12:33:07.307Z,17.34
2016-09-27T12:34:07.814Z,17.40
2016-09-27T12:35:07.394Z,17.47
2016-09-27T12:36:08.062Z,17.56
2016-09-27T12:37:07.603Z,17.55
2016-09-27T12:38:07.174Z,17.56
2016-09-27T12:39:07.745Z,17.51
2016-09-27T12:40:07.307Z,17.51
2016-09-27T12:41:07.948Z,17.51
2016-09-27T12:42:07.503Z,17.50
2016-09-27T12:43:07.965Z,17.51
2016-09-27T12:44:07.586Z,17.64
2016-09-27T12:45:07.267Z,17.68
2016-09-27T12:46:07.903Z,17.71
2016-09-27T12:47:07.483Z,17.76
2016-09-27T12:48:08.096Z,17.82
2016-09-27T12:49:07.670Z,17.91
2016-09-27T12:50:07.235Z,17.93
2016-09-27T12:51:07.856Z,17.95
2016-09-27T12:52:07.297Z,17.91